createdAt,value
2023-01-28T00:07:02.713Z,24.70
2023-01-28T00:17:09.089Z,24.00
2023-01-28T00:27:15.338Z,26.40
2023-01-28T00:37:21.638Z,24.90
2023-01-28T00:47:27.901Z,24.10
2023-01-28T00:57:35.139Z,23.10
2023-01-28T01:07:44.813Z,22.30
2023-01-28T01:17:51.956Z,20.50
2023-01-28T01:27:58.225Z,18.90
2023-01-28T01:38:04.754Z,20.20
2023-01-28T01:48:19.806Z,19.10
2023-01-28T01:58:31.468Z,17.70
2023-01-28T02:08:37.793Z,16.90
2023-01-28T02:18:44.107Z,16.80
2023-01-28T02:29:04.993Z,16.40
2023-01-28T02:39:20.606Z,17.10
2023-01-28T02:49:33.083Z,16.70
2023-01-28T03:00:05.648Z,15.80
2023-01-28T03:10:17.623Z,16.30
2023-01-28T03:20:45.415Z,15.80
2023-01-28T03:31:33.545Z,16.50
2023-01-28T03:41:39.915Z,17.90
2023-01-28T03:51:47.426Z,15.90
2023-01-28T04:01:53.738Z,18.20
2023-01-28T04:12:00.764Z,18.60
2023-01-28T04:22:08.382Z,17.90
2023-01-28T04:32:14.676Z,17.30
2023-01-28T04:42:20.994Z,15.90
2023-01-28T04:52:27.309Z,17.40
2023-01-28T05:02:33.668Z,16.50
2023-01-28T05:12:40.025Z,15.20
2023-01-28T05:22:46.330Z,14.90
2023-01-28T05:32:56.380Z,15.80
2023-01-28T05:43:02.731Z,13.90
2023-01-28T05:53:09.075Z,15.60
2023-01-28T06:03:15.518Z,15.00
2023-01-28T06:13:21.929Z,12.60
2023-01-28T06:23:28.272Z,14.40
2023-01-28T06:33:34.563Z,14.00
2023-01-28T06:43:40.886Z,15.20
2023-01-28T06:53:47.212Z,16.00
2023-01-28T07:03:53.533Z,16.50
2023-01-28T07:13:59.931Z,17.20
2023-01-28T07:24:07.384Z,18.70
2023-01-28T07:34:14.048Z,18.90
2023-01-28T07:44:20.423Z,20.10
2023-01-28T07:54:26.714Z,14.20
2023-01-28T08:04:33.078Z,14.90
2023-01-28T08:14:39.499Z,15.40
2023-01-28T08:24:45.817Z,16.90
2023-01-28T08:34:52.207Z,16.40
2023-01-28T08:44:58.482Z,18.00
2023-01-28T08:55:05.126Z,16.70
2023-01-28T09:05:12.161Z,17.60
2023-01-28T09:15:19.105Z,17.50
2023-01-28T09:25:25.408Z,17.50
2023-01-28T09:35:31.775Z,15.40
2023-01-28T09:45:41.668Z,17.50
2023-01-28T09:55:51.734Z,16.60
2023-01-28T10:05:57.936Z,14.20
2023-01-28T10:16:17.901Z,15.60
2023-01-28T10:26:34.490Z,16.00
2023-01-28T10:36:40.991Z,19.70
2023-01-28T10:46:48.572Z,15.50
2023-01-28T10:57:04.327Z,14.70
2023-01-28T11:07:21.981Z,15.80
2023-01-28T11:17:31.491Z,14.70
2023-01-28T11:27:38.492Z,14.60
2023-01-28T11:37:49.824Z,14.30
2023-01-28T11:48:01.866Z,15.60
2023-01-28T11:58:53.385Z,16.70
2023-01-28T12:09:14.754Z,19.50
2023-01-28T12:19:30.964Z,19.40
2023-01-28T12:29:51.975Z,19.90
2023-01-28T12:40:27.708Z,26.10
2023-01-28T12:50:44.387Z,24.20
2023-01-28T13:00:53.145Z,21.10
2023-01-28T13:11:03.375Z,21.40
2023-01-28T13:21:16.612Z,21.80
2023-01-28T13:31:24.830Z,24.40
2023-01-28T13:41:42.438Z,22.80
2023-01-28T13:51:59.903Z,22.90
2023-01-28T14:02:30.690Z,28.20
2023-01-28T14:12:55.758Z,29.40
2023-01-28T14:23:19.990Z,31.70
2023-01-28T14:33:26.903Z,30.90
2023-01-28T14:43:33.598Z,33.00
2023-01-28T14:53:52.929Z,25.90
2023-01-28T15:03:59.432Z,29.20
2023-01-28T15:14:06.573Z,39.90
2023-01-28T15:24:17.210Z,36.10
2023-01-28T15:34:31.212Z,27.40
2023-01-28T15:44:45.564Z,31.80
2023-01-28T15:54:53.257Z,30.80
2023-01-28T16:05:03.331Z,34.10
2023-01-28T16:15:19.616Z,34.30
2023-01-28T16:25:31.032Z,36.00
2023-01-28T16:36:01.328Z,36.80
2023-01-28T16:46:07.909Z,34.50
2023-01-28T16:56:30.689Z,34.20
2023-01-28T17:06:47.647Z,36.90
2023-01-28T17:16:54.082Z,37.30
2023-01-28T17:27:00.433Z,35.90
2023-01-28T17:37:06.848Z,34.30
2023-01-28T17:47:13.158Z,35.40
2023-01-28T17:57:19.478Z,34.00
2023-01-28T18:07:25.842Z,38.80
2023-01-28T18:17:32.162Z,38.10
2023-01-28T18:27:38.514Z,37.30
2023-01-28T18:37:44.910Z,39.80
2023-01-28T18:47:51.300Z,42.60
2023-01-28T18:57:58.115Z,58.90
2023-01-28T19:08:06.778Z,49.60
2023-01-28T19:18:13.073Z,56.20
2023-01-28T19:28:19.985Z,64.30
2023-01-28T19:38:28.188Z,54.90
2023-01-28T19:48:34.615Z,47.50
2023-01-28T19:58:42.853Z,48.50
2023-01-28T20:08:54.148Z,43.60
2023-01-28T20:19:02.979Z,44.30
2023-01-28T20:29:19.184Z,45.00
2023-01-28T20:39:25.740Z,32.50
2023-01-28T20:49:32.823Z,29.90
2023-01-28T20:59:39.213Z,28.80
2023-01-28T21:09:45.745Z,31.40
2023-01-28T21:19:52.143Z,32.90
2023-01-28T21:29:58.583Z,30.80
2023-01-28T21:40:06.164Z,29.10
2023-01-28T21:50:12.757Z,29.10
2023-01-28T22:00:19.666Z,24.40
2023-01-28T22:10:26.164Z,22.60
2023-01-28T22:20:32.456Z,24.80
2023-01-28T22:30:38.806Z,18.40
2023-01-28T22:40:45.070Z,11.90
2023-01-28T22:50:51.348Z,10.50
2023-01-28T23:00:57.705Z,8.90
2023-01-28T23:11:04.424Z,11.20
2023-01-28T23:21:38.438Z,13.10
2023-01-28T23:31:47.883Z,11.90
2023-01-28T23:41:54.297Z,13.40
2023-01-28T23:52:00.705Z,13.40
